This is the latest recevied weather packets stored in our database for station/object VA3XLC. If no packets are shown the sender has not sent any weather packets the latest 10 day(s).
| Time | Temp. | Humidity | Pressure | Rain* | Wind** | Luminosity | Snow |
|---|---|---|---|---|---|---|---|
| 1778014445 | 9.44° C | 76% | 975.4 hPa | - | - | 48 W/m² | - |
| 1778014144 | 9.44° C | 75% | 975.4 hPa | - | - | 58 W/m² | - |
| 1778012020 | 9.44° C | 77% | 975.5 hPa | - | - | 69 W/m² | - |
| 1778011420 | 9.44° C | 76% | 975.5 hPa | - | - | 76 W/m² | - |
| 1778010798 | 9.44° C | 76% | 975.4 hPa | - | - | 95 W/m² | - |
| 1778009897 | 9.44° C | 76% | 975.2 hPa | - | - | 60 W/m² | - |
| 1778006850 | 10° C | 72% | 974.9 hPa | - | - | 97 W/m² | - |
| 1778005047 | 11.11° C | 59% | 974.6 hPa | - | - | 117 W/m² | - |
| 1778000135 | 12.78° C | 57% | 973.5 hPa | - | - | 427 W/m² | - |
| 1777999834 | 13.33° C | 57% | 973.4 hPa | - | - | 284 W/m² | - |
| 1777993421 | 12.78° C | 63% | 972.5 hPa | - | - | 667 W/m² | - |
| 1777990375 | 12.22° C | 70% | 971.9 hPa | - | - | 617 W/m² | - |
| 1777988232 | 10.56° C | 75% | 971.5 hPa | - | - | 316 W/m² | - |
| 1777986728 | 10° C | 77% | 971.2 hPa | - | - | 449 W/m² | - |
| 1777985806 | 10° C | 78% | 971.4 hPa | - | - | 192 W/m² | - |
| 1777983683 | 11.67° C | 77% | 970.6 hPa | - | - | 81 W/m² | - |
| 1777981559 | 14.44° C | 76% | 969.4 hPa | - | - | 76 W/m² | - |
| 1777980638 | 14.44° C | 75% | 969.2 hPa | - | - | 53 W/m² | - |
| 1777980337 | 15° C | 75% | 969.2 hPa | - | - | 47 W/m² | - |
| 1777979715 | 15° C | 74% | 969.1 hPa | - | - | 40 W/m² | - |
| 1777978172 | 15° C | 74% | 968.9 hPa | - | - | 20 W/m² | - |
| 1777977571 | 15° C | 73% | 968.7 hPa | - | - | 13 W/m² | - |
| 1777976971 | 15° C | 73% | 968.6 hPa | - | - | 6 W/m² | - |
| 1777974826 | 15° C | 73% | 968.5 hPa | - | - | 0 W/m² | - |
| 1777974226 | 15° C | 73% | 968.4 hPa | - | - | 0 W/m² | - |
* Rain since midnight (hover to see other rain measurements)
** Current wind speed in m/s (hover to see current wind gust speed)